L'Anse-Saint-Jean, Canada
Current Conditions -  °F | °C
As of 1:00 AM on Friday 31 Oct 2014 (Local Time) from CYBG Reporting Station
Overcast Overcast  
Wind Chill: 36°   Ceiling: 4500
Heat Index: 36°   Visibility: 25mi
Dew Point: 27°   Wind: 3mph
Humidity: 70%   Direction: 270°W
Pressure: 29.97"   Gusts: NA
Location:  48.23°N, 70.18°W
Report Text: CYBG 310500Z 27003KT 25SM OVC045 02/M03 A2997 RMK SC8 SLP155
Loading
Personal Weather Stations






























Interactive Weather Map
Tropical Storm Tracking
New forecast layout! Learn more

10-Day Weather Forecast

Advertisements
Track Severe Weather on mobile